Bootsie B, — WDF9484 — position and weather

sailwx.info

Track history (hours):
 
Tides and Currents Weather Stations Pressure Air Temp Water Temp Dewpoint Dewpoint Depression Visibility Wind Speed Wind Dir Waves Ship Positions

Bootsie B,

Owner: Marquette Transp[ortation Co. LLC, Paducah, KY. More information available from US FCC via Universal Licensing System and Coast Guard Vessel Documentation Center.

Last reported at 2016-Feb-01 12:31 UTC. Time now 2016-Feb-09 07:40 UTC.
Position N 32°40' W 091°08'.

Length 57 m; draft 2 m.

Type: Towing. MMSI: 367505630.

Date/timePositionNaut miles runAvg speedWind from/ knotsBaromVisibWave heightAir tempDewpointWater temp
2016-Feb-01 12:31N 32°40' W 091°08'5 5.0
2016-Feb-01 11:34N 32°35' W 091°07'5 5.4
2016-Feb-01 10:33N 32°30' W 091°07'5 5.2
2016-Feb-01 09:33N 32°26' W 091°02'4 4.1
2016-Feb-01 08:33N 32°23' W 090°60'4 4.3
2016-Feb-01 07:33N 32°20' W 090°56'4 3.7
2016-Feb-01 06:33N 32°17' W 090°57'6 5.5
2016-Feb-01 05:32N 32°12' W 090°59'5 4.8
2016-Feb-01 04:33N 32°07' W 091°02'3 3.4
2016-Feb-01 03:31N 32°06' W 091°06'4 3.8
2016-Feb-01 02:33N 32°03' W 091°04'  
2016-Jan-25 16:32N 32°04' W 091°04'6 6.3
2016-Jan-25 15:34N 32°10' W 091°00'1211.6
2016-Jan-25 14:34N 32°20' W 090°54'3 3.0
2016-Jan-25 13:33N 32°21' W 090°58'0 0.0
2016-Jan-25 12:33N 32°21' W 090°58'0 0.0
2016-Jan-25 11:34N 32°21' W 090°58'0 0.0
2016-Jan-25 10:33N 32°21' W 090°58'0 0.0
2016-Jan-25 09:33N 32°21' W 090°58'0 0.0
2016-Jan-25 08:34N 32°21' W 090°58'0 0.0
2016-Jan-25 07:34N 32°21' W 090°58'0 0.0
2016-Jan-25 06:34N 32°21' W 090°58'0 0.0
2016-Jan-25 05:34N 32°21' W 090°58'0 0.0
2016-Jan-25 04:34N 32°21' W 090°58'0 0.0
2016-Jan-25 03:34N 32°21' W 090°58'0 0.0
2016-Jan-25 02:34N 32°21' W 090°58'0 0.0
2016-Jan-25 01:34N 32°21' W 090°58'0 0.0
2016-Jan-25 00:33N 32°21' W 090°58'0 0.0
2016-Jan-24 23:33N 32°21' W 090°58'0 0.0
2016-Jan-24 22:34N 32°21' W 090°58'0 0.0
2016-Jan-24 21:34N 32°21' W 090°58'0 0.0
2016-Jan-24 20:34N 32°21' W 090°58'0 0.0
2016-Jan-24 19:34N 32°21' W 090°58'0 0.0
2016-Jan-24 18:34N 32°21' W 090°58'0 0.0
2016-Jan-24 17:34N 32°21' W 090°58'0 0.0
2016-Jan-24 16:33N 32°21' W 090°58'0 0.0
2016-Jan-24 15:34N 32°21' W 090°58'0 0.0
2016-Jan-24 14:34N 32°21' W 090°58'0 0.0
2016-Jan-24 13:34N 32°21' W 090°58'0 0.0
2016-Jan-24 12:34N 32°21' W 090°58'0 0.0
2016-Jan-24 11:33N 32°21' W 090°58'0 0.2
2016-Jan-24 10:34N 32°21' W 090°58'0 0.0
2016-Jan-24 09:34N 32°21' W 090°58'0 0.0
2016-Jan-24 08:33N 32°21' W 090°58'0 0.0
2016-Jan-24 07:34N 32°21' W 090°58'0 0.1
2016-Jan-24 06:34N 32°21' W 090°58'0 0.1
2016-Jan-24 05:33N 32°21' W 090°58'0 0.1
2016-Jan-24 04:33N 32°21' W 090°58'0 0.0
2016-Jan-24 03:33N 32°21' W 090°58'0 0.0
2016-Jan-24 02:34N 32°21' W 090°58'0 0.0
2016-Jan-24 01:34N 32°21' W 090°58'0 0.0
2016-Jan-24 00:34N 32°21' W 090°58'0 0.0
2016-Jan-23 23:34N 32°21' W 090°58'0 0.0
2016-Jan-23 22:33N 32°21' W 090°58'0 0.0
2016-Jan-23 21:34N 32°21' W 090°58'0 0.0
2016-Jan-23 20:34N 32°21' W 090°58'0 0.0
2016-Jan-23 19:34N 32°21' W 090°58'0 0.0
2016-Jan-23 18:34N 32°21' W 090°58'0 0.0
2016-Jan-23 17:34N 32°21' W 090°58'0 0.0
2016-Jan-23 16:33N 32°21' W 090°58'0 0.0
2016-Jan-23 15:34N 32°21' W 090°58'0 0.0
2016-Jan-23 14:34N 32°21' W 090°58'0 0.0
2016-Jan-23 13:34N 32°21' W 090°58'0 0.0
2016-Jan-23 12:34N 32°21' W 090°58'0 0.0
2016-Jan-23 11:34N 32°21' W 090°58'0 0.0
2016-Jan-23 10:33N 32°21' W 090°58'0 0.0
2016-Jan-23 09:34N 32°21' W 090°58'0 0.0
2016-Jan-23 08:33N 32°21' W 090°58'0 0.0
2016-Jan-23 07:34N 32°21' W 090°58'0 0.0
2016-Jan-23 06:33N 32°21' W 090°58'0 0.0
2016-Jan-23 05:34N 32°21' W 090°58'0 0.0
2016-Jan-23 04:34N 32°21' W 090°58'0 0.0
2016-Jan-23 03:34N 32°21' W 090°58'0 0.0
2016-Jan-23 02:34N 32°21' W 090°58'0 0.0
2016-Jan-23 01:34N 32°21' W 090°58'0 0.0
2016-Jan-23 00:34N 32°21' W 090°58'0 0.0
2016-Jan-22 22:33N 32°21' W 090°58'0 0.0
2016-Jan-22 21:34N 32°21' W 090°58'0 0.0
2016-Jan-22 20:34N 32°21' W 090°58'0 0.0
2016-Jan-22 19:34N 32°21' W 090°58'0 0.0
2016-Jan-22 18:33N 32°21' W 090°58'0 0.1
2016-Jan-22 17:33N 32°21' W 090°58'0 0.4
2016-Jan-22 16:33N 32°21' W 090°58'0 0.2
2016-Jan-22 15:34N 32°21' W 090°58'0 0.1
2016-Jan-22 14:34N 32°21' W 090°58'6 6.4
2016-Jan-22 13:33N 32°26' W 091°03'  
Track history (hours):
 
Tides and Currents Weather Stations Pressure Air Temp Water Temp Dewpoint Dewpoint Depression Visibility Wind Speed Wind Dir Waves Ship Positions

Bootsie B,

Owner: Marquette Transp[ortation Co. LLC, Paducah, KY. More information available from US FCC via Universal Licensing System and Coast Guard Vessel Documentation Center.

Last reported at 2016-Feb-01 12:31 UTC. Time now 2016-Feb-09 07:40 UTC.
Position N 32°40' W 091°08'.

Length 57 m; draft 2 m.

Type: Towing. MMSI: 367505630.

Date/timePositionNaut miles runAvg speedWind from/ knotsBaromVisibWave heightAir tempDewpointWater temp
2016-Feb-01 12:31N 32°40' W 091°08'5 5.0
2016-Feb-01 11:34N 32°35' W 091°07'5 5.4
2016-Feb-01 10:33N 32°30' W 091°07'5 5.2
2016-Feb-01 09:33N 32°26' W 091°02'4 4.1
2016-Feb-01 08:33N 32°23' W 090°60'4 4.3
2016-Feb-01 07:33N 32°20' W 090°56'4 3.7
2016-Feb-01 06:33N 32°17' W 090°57'6 5.5
2016-Feb-01 05:32N 32°12' W 090°59'5 4.8
2016-Feb-01 04:33N 32°07' W 091°02'3 3.4
2016-Feb-01 03:31N 32°06' W 091°06'4 3.8
2016-Feb-01 02:33N 32°03' W 091°04'  
2016-Jan-25 16:32N 32°04' W 091°04'6 6.3
2016-Jan-25 15:34N 32°10' W 091°00'1211.6
2016-Jan-25 14:34N 32°20' W 090°54'3 3.0
2016-Jan-25 13:33N 32°21' W 090°58'0 0.0
2016-Jan-25 12:33N 32°21' W 090°58'0 0.0
2016-Jan-25 11:34N 32°21' W 090°58'0 0.0
2016-Jan-25 10:33N 32°21' W 090°58'0 0.0
2016-Jan-25 09:33N 32°21' W 090°58'0 0.0
2016-Jan-25 08:34N 32°21' W 090°58'0 0.0
2016-Jan-25 07:34N 32°21' W 090°58'0 0.0
2016-Jan-25 06:34N 32°21' W 090°58'0 0.0
2016-Jan-25 05:34N 32°21' W 090°58'0 0.0
2016-Jan-25 04:34N 32°21' W 090°58'0 0.0
2016-Jan-25 03:34N 32°21' W 090°58'0 0.0
2016-Jan-25 02:34N 32°21' W 090°58'0 0.0
2016-Jan-25 01:34N 32°21' W 090°58'0 0.0
2016-Jan-25 00:33N 32°21' W 090°58'0 0.0
2016-Jan-24 23:33N 32°21' W 090°58'0 0.0
2016-Jan-24 22:34N 32°21' W 090°58'0 0.0
2016-Jan-24 21:34N 32°21' W 090°58'0 0.0
2016-Jan-24 20:34N 32°21' W 090°58'0 0.0
2016-Jan-24 19:34N 32°21' W 090°58'0 0.0
2016-Jan-24 18:34N 32°21' W 090°58'0 0.0
2016-Jan-24 17:34N 32°21' W 090°58'0 0.0
2016-Jan-24 16:33N 32°21' W 090°58'0 0.0
2016-Jan-24 15:34N 32°21' W 090°58'0 0.0
2016-Jan-24 14:34N 32°21' W 090°58'0 0.0
2016-Jan-24 13:34N 32°21' W 090°58'0 0.0
2016-Jan-24 12:34N 32°21' W 090°58'0 0.0
2016-Jan-24 11:33N 32°21' W 090°58'0 0.2
2016-Jan-24 10:34N 32°21' W 090°58'0 0.0
2016-Jan-24 09:34N 32°21' W 090°58'0 0.0
2016-Jan-24 08:33N 32°21' W 090°58'0 0.0
2016-Jan-24 07:34N 32°21' W 090°58'0 0.1
2016-Jan-24 06:34N 32°21' W 090°58'0 0.1
2016-Jan-24 05:33N 32°21' W 090°58'0 0.1
2016-Jan-24 04:33N 32°21' W 090°58'0 0.0
2016-Jan-24 03:33N 32°21' W 090°58'0 0.0
2016-Jan-24 02:34N 32°21' W 090°58'0 0.0
2016-Jan-24 01:34N 32°21' W 090°58'0 0.0
2016-Jan-24 00:34N 32°21' W 090°58'0 0.0
2016-Jan-23 23:34N 32°21' W 090°58'0 0.0
2016-Jan-23 22:33N 32°21' W 090°58'0 0.0
2016-Jan-23 21:34N 32°21' W 090°58'0 0.0
2016-Jan-23 20:34N 32°21' W 090°58'0 0.0
2016-Jan-23 19:34N 32°21' W 090°58'0 0.0
2016-Jan-23 18:34N 32°21' W 090°58'0 0.0
2016-Jan-23 17:34N 32°21' W 090°58'0 0.0
2016-Jan-23 16:33N 32°21' W 090°58'0 0.0
2016-Jan-23 15:34N 32°21' W 090°58'0 0.0
2016-Jan-23 14:34N 32°21' W 090°58'0 0.0
2016-Jan-23 13:34N 32°21' W 090°58'0 0.0
2016-Jan-23 12:34N 32°21' W 090°58'0 0.0
2016-Jan-23 11:34N 32°21' W 090°58'0 0.0
2016-Jan-23 10:33N 32°21' W 090°58'0 0.0
2016-Jan-23 09:34N 32°21' W 090°58'0 0.0
2016-Jan-23 08:33N 32°21' W 090°58'0 0.0
2016-Jan-23 07:34N 32°21' W 090°58'0 0.0
2016-Jan-23 06:33N 32°21' W 090°58'0 0.0
2016-Jan-23 05:34N 32°21' W 090°58'0 0.0
2016-Jan-23 04:34N 32°21' W 090°58'0 0.0
2016-Jan-23 03:34N 32°21' W 090°58'0 0.0
2016-Jan-23 02:34N 32°21' W 090°58'0 0.0
2016-Jan-23 01:34N 32°21' W 090°58'0 0.0
2016-Jan-23 00:34N 32°21' W 090°58'0 0.0
2016-Jan-22 22:33N 32°21' W 090°58'0 0.0
2016-Jan-22 21:34N 32°21' W 090°58'0 0.0
2016-Jan-22 20:34N 32°21' W 090°58'0 0.0
2016-Jan-22 19:34N 32°21' W 090°58'0 0.0
2016-Jan-22 18:33N 32°21' W 090°58'0 0.1
2016-Jan-22 17:33N 32°21' W 090°58'0 0.4
2016-Jan-22 16:33N 32°21' W 090°58'0 0.2
2016-Jan-22 15:34N 32°21' W 090°58'0 0.1
2016-Jan-22 14:34N 32°21' W 090°58'6 6.4
2016-Jan-22 13:33N 32°26' W 091°03'  

Dump ship's entire track history